Time;durP1;ratioP1;P1;durP2;ratioP2;P2;SDS_P1;SDS_P2;PMS_P1;PMS_P2;Temp;Humidity;BMP_temperature;BMP_pressure;BME280_temperature;BME280_humidity;BME280_pressure;Samples;Min_cycle;Max_cycle;Signal;HPM_P1;HPM_P2
2022/08/22 04:23:14;;;;;;;3.20;2.20;;;;;;;14.88;77.58;100021.97;5088779;28;20325;-65
2022/08/22 04:25:50;;;;;;;3.97;2.58;;;;;;;15.00;76.79;100014.13;5088619;28;20032;-65
2022/08/22 04:28:31;;;;;;;3.45;2.08;;;;;;;15.06;76.34;100015.97;5089139;28;20042;-65
2022/08/22 04:31:17;;;;;;;4.95;2.30;;;;;;;15.09;76.78;100016.38;5088559;28;20094;-65
2022/08/22 04:33:59;;;;;;;3.45;2.03;;;;;;;15.17;75.04;100021.53;5088782;28;20043;-65
2022/08/22 04:36:29;;;;;;;4.95;2.40;;;;;;;15.24;74.76;100018.00;5088558;28;20048;-65
2022/08/22 04:39:08;;;;;;;4.93;2.40;;;;;;;15.17;76.02;100015.34;5088476;28;20113;-65
2022/08/22 04:42:00;;;;;;;3.38;2.13;;;;;;;15.19;75.64;100022.16;5088715;28;20437;-66
2022/08/22 04:44:30;;;;;;;7.05;2.58;;;;;;;15.24;75.11;100013.47;5088570;28;20044;-65
2022/08/22 04:47:02;;;;;;;3.20;2.20;;;;;;;15.19;76.22;100014.13;5088388;28;20503;-66
2022/08/22 04:49:37;;;;;;;3.38;2.53;;;;;;;15.16;76.27;100013.69;5088175;28;20037;-65
2022/08/22 04:52:27;;;;;;;2.42;1.70;;;;;;;15.11;75.91;100022.34;5088429;28;20040;-66
2022/08/22 04:55:30;;;;;;;4.13;1.77;;;;;;;15.22;75.60;100020.09;5088218;28;20388;-65
2022/08/22 04:58:09;;;;;;;3.85;2.33;;;;;;;15.20;75.96;100017.63;5087885;28;20460;-65
2022/08/22 05:00:53;;;;;;;4.63;2.53;;;;;;;15.17;76.69;100018.03;5087794;28;20524;-66
2022/08/22 05:03:22;;;;;;;3.35;2.15;;;;;;;15.20;75.88;100020.31;5088030;28;20038;-65
2022/08/22 05:05:49;;;;;;;2.80;1.88;;;;;;;15.19;76.57;100018.63;5087970;28;20036;-65
2022/08/22 05:08:21;;;;;;;2.80;2.03;;;;;;;15.22;75.44;100015.53;5088107;28;20046;-66
2022/08/22 05:10:48;;;;;;;2.92;1.80;;;;;;;15.24;75.02;100024.19;5087793;28;20047;-66
2022/08/22 05:13:21;;;;;;;3.80;2.05;;;;;;;15.26;74.96;100029.34;5086815;28;20036;-66
2022/08/22 05:15:57;;;;;;;3.53;2.38;;;;;;;15.37;74.59;100026.03;5087777;28;20086;-66
2022/08/22 05:18:27;;;;;;;2.85;2.00;;;;;;;15.41;74.03;100025.41;5087821;28;20111;-66
2022/08/22 05:20:57;;;;;;;2.35;1.70;;;;;;;15.46;73.87;100030.97;5087331;28;20093;-66
2022/08/22 05:23:29;;;;;;;3.28;2.03;;;;;;;15.53;73.81;100024.78;5087712;28;20085;-65
2022/08/22 05:26:00;;;;;;;2.60;1.85;;;;;;;15.57;73.28;100026.81;5087656;28;20032;-66
2022/08/22 05:28:53;;;;;;;2.47;1.80;;;;;;;15.64;73.72;100024.97;5087687;28;20040;-65
2022/08/22 05:31:33;;;;;;;2.53;1.85;;;;;;;15.68;72.93;100020.81;5087542;28;20397;-65
2022/08/22 05:34:12;;;;;;;2.78;1.85;;;;;;;15.74;72.60;100027.22;5074073;28;20036;-66
2022/08/22 05:36:47;;;;;;;2.85;1.73;;;;;;;15.77;71.89;100018.72;5074048;28;20067;-65
2022/08/22 05:39:20;;;;;;;4.80;2.53;;;;;;;15.82;71.63;100018.09;5073556;28;20028;-65
2022/08/22 05:41:47;;;;;;;3.53;2.17;;;;;;;15.89;71.83;100017.03;5073869;28;20450;-65
2022/08/22 05:44:39;;;;;;;2.20;1.70;;;;;;;15.95;71.10;100020.72;5073813;28;20035;-65
2022/08/22 05:47:18;;;;;;;3.65;1.98;;;;;;;15.99;70.83;100020.09;5071687;28;20052;-63
2022/08/22 05:50:01;;;;;;;4.18;1.83;;;;;;;16.10;70.18;100010.50;5073561;28;20040;-62
2022/08/22 05:52:49;;;;;;;5.15;2.08;;;;;;;16.22;69.37;100021.41;5073914;28;20139;-63
2022/08/22 05:55:33;;;;;;;2.75;2.00;;;;;;;16.31;68.77;100022.81;5073711;28;20576;-63
2022/08/22 05:58:27;;;;;;;2.97;1.80;;;;;;;16.39;68.85;100030.63;5073766;28;20036;-63
2022/08/22 06:01:07;;;;;;;2.92;1.55;;;;;;;16.48;68.02;100018.56;5073104;28;20461;-63
2022/08/22 06:03:38;;;;;;;4.50;1.67;;;;;;;16.59;68.07;100029.66;5073671;28;20423;-63
2022/08/22 06:06:13;;;;;;;2.50;1.83;;;;;;;16.68;67.37;100020.28;5073589;28;20036;-63
2022/08/22 06:08:44;;;;;;;2.05;1.42;;;;;;;16.76;67.38;100031.63;5073777;28;20105;-63
2022/08/22 06:11:32;;;;;;;2.88;1.73;;;;;;;16.88;66.51;100037.09;5072274;28;20053;-63
2022/08/22 06:14:14;;;;;;;2.58;1.80;;;;;;;17.01;65.68;100037.00;5073476;28;20055;-63
2022/08/22 06:16:48;;;;;;;2.33;1.80;;;;;;;17.06;65.26;100037.16;5073324;28;20085;-63
2022/08/22 06:19:16;;;;;;;2.17;1.75;;;;;;;17.17;64.87;100030.25;5073068;28;20040;-62
2022/08/22 06:21:44;;;;;;;4.20;1.90;;;;;;;17.26;64.25;100030.78;5073105;28;20062;-63
2022/08/22 06:24:19;;;;;;;2.47;1.60;;;;;;;17.32;64.16;100038.78;5073041;28;20036;-63
2022/08/22 06:26:49;;;;;;;2.25;1.60;;;;;;;17.48;64.29;100045.47;5073177;28;20070;-64
2022/08/22 06:29:28;;;;;;;2.72;1.70;;;;;;;17.53;64.10;100037.53;5072957;28;20055;-64
2022/08/22 06:31:55;;;;;;;2.30;1.67;;;;;;;17.64;63.22;100044.88;5073074;28;20492;-64
2022/08/22 06:34:27;;;;;;;4.68;2.00;;;;;;;17.75;62.85;100048.75;5073120;28;20037;-64
2022/08/22 06:36:56;;;;;;;2.58;1.80;;;;;;;17.86;62.61;100053.34;5072956;28;20048;-63
2022/08/22 06:39:32;;;;;;;3.63;2.03;;;;;;;17.95;62.07;100056.59;5072651;28;20040;-63
2022/08/22 06:42:15;;;;;;;2.93;1.90;;;;;;;18.11;62.04;100064.03;5072957;28;20385;-63
2022/08/22 06:44:48;;;;;;;3.75;1.83;;;;;;;18.17;62.17;100059.63;5072001;28;20044;-64
2022/08/22 06:47:35;;;;;;;2.67;1.65;;;;;;;18.29;61.76;100056.97;5072858;28;20033;-64
2022/08/22 06:50:13;;;;;;;3.17;1.63;;;;;;;18.40;60.27;100065.13;5072468;28;20032;-63
2022/08/22 06:52:55;;;;;;;2.97;1.77;;;;;;;18.50;61.01;100059.16;5072870;28;20390;-63
2022/08/22 06:55:25;;;;;;;3.65;2.00;;;;;;;18.68;58.73;100061.84;5072562;28;20028;-64
2022/08/22 06:58:03;;;;;;;2.85;1.67;;;;;;;18.76;58.38;100059.84;5071098;28;20047;-63
2022/08/22 07:00:31;;;;;;;2.63;1.70;;;;;;;18.84;58.34;100054.94;5072153;28;20493;-64
2022/08/22 07:03:05;;;;;;;2.78;1.65;;;;;;;18.91;57.96;100054.84;5072592;28;20508;-63
2022/08/22 07:05:36;;;;;;;3.00;1.65;;;;;;;19.01;58.15;100063.19;5071133;28;20078;-63
2022/08/22 07:08:19;;;;;;;4.20;1.77;;;;;;;19.10;57.02;100069.06;5072283;28;20112;-63
2022/08/22 07:10:55;;;;;;;2.47;1.65;;;;;;;19.13;56.24;100063.19;5071934;28;20040;-63
2022/08/22 07:13:24;;;;;;;3.50;2.00;;;;;;;19.24;56.85;100071.31;5072097;28;20097;-64
2022/08/22 07:15:56;;;;;;;3.60;1.90;;;;;;;19.33;56.79;100068.25;5071961;28;20395;-63
2022/08/22 07:18:24;;;;;;;2.92;1.80;;;;;;;19.44;55.89;100067.44;5071940;28;20029;-63
2022/08/22 07:20:54;;;;;;;2.35;2.13;;;;;;;19.56;55.43;100062.84;5071468;28;20037;-63
2022/08/22 07:23:33;;;;;;;2.47;1.63;;;;;;;19.68;55.17;100070.97;5071876;28;20413;-63
2022/08/22 07:26:15;;;;;;;2.80;1.50;;;;;;;19.81;54.91;100072.59;5071804;28;20485;-63
2022/08/22 07:28:56;;;;;;;3.15;1.65;;;;;;;19.89;53.69;100067.66;5071891;28;20039;-64
2022/08/22 07:31:46;;;;;;;2.05;1.73;;;;;;;20.05;53.60;100071.47;5071801;28;20052;-62
2022/08/22 07:35:03;;;;;;;3.97;2.00;;;;;;;20.31;52.92;100070.91;5071762;28;20066;-60
2022/08/22 07:38:10;;;;;;;2.63;1.65;;;;;;;20.46;53.25;100073.13;5029399;28;20510;-63
2022/08/22 07:40:46;;;;;;;2.55;1.77;;;;;;;20.73;51.96;100073.31;5019227;28;20049;-65
2022/08/22 07:43:32;;;;;;;2.90;1.77;;;;;;;20.88;51.67;100075.50;5067613;28;20055;-65
2022/08/22 07:46:07;;;;;;;2.40;1.60;;;;;;;21.13;50.11;100077.81;5071627;28;20044;-65
2022/08/22 07:48:48;;;;;;;2.95;1.58;;;;;;;21.17;50.75;100078.94;5071648;28;20037;-65
2022/08/22 07:51:17;;;;;;;2.65;1.65;;;;;;;21.35;49.93;100073.28;5071492;28;20123;-65
2022/08/22 07:53:54;;;;;;;3.42;1.75;;;;;;;21.45;49.61;100075.31;5071693;28;20133;-64
2022/08/22 07:56:27;;;;;;;2.55;1.75;;;;;;;21.57;49.33;100067.91;5071220;28;20036;-65
2022/08/22 07:58:57;;;;;;;2.20;1.60;;;;;;;21.60;48.98;100072.03;5071533;28;20123;-65
2022/08/22 08:01:25;;;;;;;3.45;1.80;;;;;;;21.66;48.80;100077.28;5071410;28;20393;-65
2022/08/22 08:04:00;;;;;;;1.85;1.48;;;;;;;21.68;48.84;100075.13;5070195;28;20139;-65
2022/08/22 08:06:27;;;;;;;2.45;1.50;;;;;;;21.78;48.75;100081.75;5071417;28;20036;-66
2022/08/22 08:08:54;;;;;;;2.83;2.15;;;;;;;21.83;48.26;100071.78;5071235;28;20052;-64
2022/08/22 08:11:24;;;;;;;2.35;1.70;;;;;;;21.91;48.56;100084.09;5071189;28;20051;-65
2022/08/22 08:13:56;;;;;;;2.15;1.42;;;;;;;22.04;48.26;100086.44;5071550;28;20443;-65
2022/08/22 08:16:25;;;;;;;2.78;1.90;;;;;;;22.15;47.08;100085.50;5071259;28;20041;-65
2022/08/22 08:18:55;;;;;;;3.67;1.67;;;;;;;22.19;46.93;100080.41;5071182;28;20493;-63
2022/08/22 08:21:26;;;;;;;3.42;1.50;;;;;;;22.26;47.73;100077.50;5070772;28;20079;-65
2022/08/22 08:23:52;;;;;;;2.75;1.55;;;;;;;22.39;46.82;100074.38;5070983;28;20041;-64
2022/08/22 08:26:26;;;;;;;2.97;1.70;;;;;;;22.48;46.73;100078.28;5071072;28;20098;-65
2022/08/22 08:28:55;;;;;;;3.88;1.83;;;;;;;22.47;45.93;100082.06;5071040;28;20481;-62
2022/08/22 08:31:37;;;;;;;3.70;2.03;;;;;;;22.47;46.77;100077.44;5071062;28;20052;-61
2022/08/22 08:34:22;;;;;;;2.35;1.70;;;;;;;22.55;46.30;100073.44;5071144;28;20093;-62
2022/08/22 08:36:55;;;;;;;2.20;1.70;;;;;;;22.62;46.38;100076.78;5071040;28;20044;-63
2022/08/22 08:39:42;;;;;;;3.85;1.85;;;;;;;22.78;46.04;100072.34;5070801;28;20052;-63
2022/08/22 08:42:14;;;;;;;4.13;1.85;;;;;;;22.82;46.15;100068.03;5070918;28;20033;-63
2022/08/22 08:44:39;;;;;;;2.35;1.85;;;;;;;22.85;45.66;100067.50;5070984;28;20492;-63
2022/08/22 08:47:31;;;;;;;2.50;1.70;;;;;;;22.97;45.51;100065.47;5071051;28;20032;-65
2022/08/22 08:50:15;;;;;;;3.08;1.77;;;;;;;22.99;45.49;100068.75;5070756;28;20380;-65
2022/08/22 08:52:57;;;;;;;4.25;2.00;;;;;;;23.09;45.39;100078.06;5070968;28;20089;-64
2022/08/22 08:55:36;;;;;;;3.00;1.88;;;;;;;23.13;46.00;100074.53;5070868;28;20033;-65
2022/08/22 08:58:30;;;;;;;4.18;1.92;;;;;;;23.29;45.89;100062.72;5071226;28;20032;-64
2022/08/22 09:01:11;;;;;;;2.42;1.80;;;;;;;23.49;45.26;100055.78;5070480;28;20040;-65
2022/08/22 09:04:15;;;;;;;4.00;2.13;;;;;;;23.61;44.89;100063.75;5070809;28;20047;-65
2022/08/22 09:06:58;;;;;;;3.88;1.98;;;;;;;23.90;45.71;100061.47;5070678;28;20469;-65
2022/08/22 09:10:07;;;;;;;2.10;1.70;;;;;;;23.99;44.49;100060.66;5074056;28;20127;-65
2022/08/22 09:12:58;;;;;;;5.88;1.70;;;;;;;24.03;44.32;100061.78;5052964;28;20051;-65
2022/08/22 09:15:46;;;;;;;2.22;1.60;;;;;;;24.14;44.42;100064.53;5074145;28;20040;-65
2022/08/22 09:18:32;;;;;;;3.47;1.95;;;;;;;24.23;44.44;100066.47;5074364;28;20493;-64
2022/08/22 09:21:06;;;;;;;3.17;2.00;;;;;;;24.39;43.96;100067.38;5073909;28;20477;-65
2022/08/22 09:23:47;;;;;;;3.28;2.00;;;;;;;24.49;43.25;100072.00;5072876;28;20036;-64
2022/08/22 09:26:19;;;;;;;2.75;1.75;;;;;;;24.49;43.36;100061.94;5072774;28;20032;-64
2022/08/22 09:28:54;;;;;;;3.45;1.90;;;;;;;24.68;43.01;100070.41;5073908;28;20056;-65
2022/08/22 09:31:39;;;;;;;3.67;1.83;;;;;;;24.85;42.93;100067.44;5074168;28;20389;-66
2022/08/22 09:34:12;;;;;;;2.45;1.50;;;;;;;25.13;42.47;100064.19;5073837;28;20068;-65
2022/08/22 09:37:11;;;;;;;2.72;1.75;;;;;;;25.43;41.86;100059.81;5073810;28;20044;-65
2022/08/22 09:39:49;;;;;;;3.33;2.05;;;;;;;25.74;44.54;100063.28;5073643;28;20399;-65
2022/08/22 09:43:09;;;;;;;2.53;1.77;;;;;;;26.18;39.51;100066.09;5073883;28;20036;-65
2022/08/22 09:46:01;;;;;;;3.15;1.60;;;;;;;26.53;38.40;100053.34;5031510;28;20076;-65
2022/08/22 09:48:55;;;;;;;2.53;1.70;;;;;;;26.94;38.41;100061.25;5031610;28;20037;-65
2022/08/22 09:51:50;;;;;;;2.17;1.80;;;;;;;27.27;37.31;100051.44;5071547;28;20041;-66
2022/08/22 09:54:29;;;;;;;1.50;1.40;;;;;;;27.48;37.63;100049.28;5073712;28;20052;-65
2022/08/22 09:57:06;;;;;;;2.55;1.58;;;;;;;28.01;35.56;100049.25;5073905;28;20059;-52
2022/08/22 09:59:43;;;;;;;3.17;1.67;;;;;;;28.17;37.49;100044.38;5073558;28;20032;-58
2022/08/22 10:02:35;;;;;;;2.08;1.40;;;;;;;28.74;34.96;100040.53;5073889;28;20131;-55
2022/08/22 10:05:28;;;;;;;2.30;1.60;;;;;;;28.94;33.42;100039.41;5057296;28;20497;-67
2022/08/22 10:08:29;;;;;;;2.92;1.95;;;;;;;29.57;33.37;100040.78;5073511;28;20055;-64
2022/08/22 10:11:17;;;;;;;2.92;1.58;;;;;;;30.02;32.48;100040.94;5063808;28;20550;-64
2022/08/22 10:13:50;;;;;;;4.22;1.67;;;;;;;30.23;31.25;100031.97;5073313;28;20044;-63
2022/08/22 10:16:25;;;;;;;2.65;1.80;;;;;;;30.15;30.99;100034.66;5073284;28;20119;-63
2022/08/22 10:18:56;;;;;;;2.03;1.42;;;;;;;30.36;31.06;100035.00;5071769;28;20036;-63
2022/08/22 10:21:36;;;;;;;2.72;1.52;;;;;;;30.56;30.78;100034.50;5073135;28;20378;-63
2022/08/22 10:24:36;;;;;;;1.98;1.63;;;;;;;30.81;30.29;100027.63;5073055;28;20469;-64
2022/08/22 10:27:12;;;;;;;3.17;1.88;;;;;;;30.96;30.33;100037.41;5071732;28;20055;-63
2022/08/22 10:30:15;;;;;;;3.90;1.83;;;;;;;31.51;29.12;100031.59;5112299;22;20047;-63
2022/08/22 10:32:49;;;;;;;2.92;1.50;;;;;;;31.80;28.18;100022.78;5093544;28;20036;-62
2022/08/22 10:35:25;;;;;;;3.75;1.65;;;;;;;32.29;27.98;100018.03;5093452;28;20032;-61
2022/08/22 10:38:04;;;;;;;3.20;1.65;;;;;;;32.09;26.07;100019.47;5075236;28;20119;-62
2022/08/22 10:40:40;;;;;;;1.70;1.40;;;;;;;32.52;25.91;100010.41;5093398;28;20396;-60
2022/08/22 10:43:37;;;;;;;2.13;1.40;;;;;;;32.80;25.83;100011.69;5093391;28;20040;-62
2022/08/22 10:46:11;;;;;;;1.60;1.50;;;;;;;32.67;25.97;100007.16;5093365;28;20500;-62
2022/08/22 10:48:46;;;;;;;2.42;1.30;;;;;;;32.58;26.22;100001.66;5093061;28;20104;-62
2022/08/22 10:51:25;;;;;;;2.88;1.63;;;;;;;33.25;24.51;100004.91;5092911;28;20039;-63
2022/08/22 10:54:16;;;;;;;2.67;1.70;;;;;;;33.44;24.81;100002.59;5093155;28;20028;-62
2022/08/22 10:57:06;;;;;;;1.80;1.30;;;;;;;33.89;23.97;99999.25;5093177;28;20507;-63
2022/08/22 10:59:38;;;;;;;2.13;1.48;;;;;;;33.88;23.00;99992.94;5092789;28;20127;-62
2022/08/22 11:02:13;;;;;;;1.85;1.40;;;;;;;33.87;23.97;99993.28;5093082;28;20447;-63
2022/08/22 11:05:12;;;;;;;1.70;1.30;;;;;;;34.59;22.79;99992.09;5093317;28;20040;-62
2022/08/22 11:07:44;;;;;;;2.28;1.52;;;;;;;33.91;22.90;99985.97;5088190;28;20070;-63
2022/08/22 11:10:29;;;;;;;1.30;1.20;;;;;;;34.34;23.05;99993.09;5092590;28;20068;-63
2022/08/22 11:13:04;;;;;;;2.85;1.38;;;;;;;34.81;22.15;99983.38;5051321;28;20051;-62
2022/08/22 11:15:56;;;;;;;3.92;1.67;;;;;;;34.81;22.68;99983.38;5092874;28;20040;-61
2022/08/22 11:18:25;;;;;;;1.60;1.10;;;;;;;34.54;22.75;99986.78;5092647;28;20082;-63
2022/08/22 11:21:03;;;;;;;1.80;1.17;;;;;;;34.96;21.56;99981.16;5092431;28;20032;-62
2022/08/22 11:23:57;;;;;;;1.80;1.25;;;;;;;35.51;21.07;99983.41;5092634;28;20052;-61
2022/08/22 11:26:35;;;;;;;2.20;1.25;;;;;;;35.58;20.75;99988.38;5092023;28;20058;-62
2022/08/22 11:29:15;;;;;;;1.52;1.17;;;;;;;35.66;20.45;99981.91;5092093;28;20485;-62
2022/08/22 11:32:02;;;;;;;2.33;1.40;;;;;;;35.76;21.86;99967.59;5091954;28;20060;-61
2022/08/22 11:34:30;;;;;;;2.65;1.40;;;;;;;36.77;19.94;99976.84;5092426;28;20119;-62
2022/08/22 11:37:16;;;;;;;1.70;1.38;;;;;;;36.35;19.56;99972.53;5092343;28;20031;-63
2022/08/22 11:40:03;;;;;;;2.83;1.58;;;;;;;36.02;20.83;99955.31;5092050;28;20081;-63
2022/08/22 11:42:50;;;;;;;2.85;1.70;;;;;;;35.78;20.64;99958.94;5092350;28;20083;-61
2022/08/22 11:45:20;;;;;;;1.90;1.20;;;;;;;36.60;20.10;99955.81;5092197;28;20071;-62
2022/08/22 11:47:59;;;;;;;4.50;1.42;;;;;;;36.34;20.24;99959.84;5092171;28;20040;-63
2022/08/22 11:50:39;;;;;;;2.10;1.60;;;;;;;34.56;21.52;99956.84;5091931;28;20071;-63
2022/08/22 11:53:31;;;;;;;3.40;1.60;;;;;;;33.39;21.96;99950.38;5092171;28;20114;-62
2022/08/22 11:56:09;;;;;;;2.95;1.75;;;;;;;33.05;22.94;99952.09;5092045;28;20046;-62
2022/08/22 11:58:49;;;;;;;1.83;1.40;;;;;;;33.47;23.71;99952.25;5092044;28;20434;-62
2022/08/22 12:01:36;;;;;;;2.53;1.42;;;;;;;33.14;22.24;99949.31;5091770;28;20100;-60
2022/08/22 12:04:16;;;;;;;;;;;;;;;33.89;21.93;99944.81;5092401;28;20427;-62
2022/08/22 12:06:51;;;;;;;2.30;1.42;;;;;;;34.38;21.69;99947.88;5091892;28;19919;-63
2022/08/22 12:09:28;;;;;;;1.10;1.00;;;;;;;35.25;20.34;99947.75;5091562;28;20085;-63
2022/08/22 12:12:38;;;;;;;1.67;1.20;;;;;;;35.04;19.90;99955.34;5091731;28;20393;-63
2022/08/22 12:15:20;;;;;;;2.38;1.15;;;;;;;36.09;19.39;99948.03;5009628;28;20477;-61
2022/08/22 12:17:45;;;;;;;2.40;1.10;;;;;;;36.62;19.85;99942.38;5009603;28;20056;-61
2022/08/22 12:20:44;;;;;;;2.63;1.50;;;;;;;35.73;19.84;99943.34;5056285;28;20055;-62
2022/08/22 12:23:20;;;;;;;1.80;1.33;;;;;;;35.05;19.87;99937.59;5091778;28;20044;-61
2022/08/22 12:26:15;;;;;;;2.05;1.20;;;;;;;34.45;20.50;99937.09;5091753;28;20032;-61
2022/08/22 12:28:40;;;;;;;2.25;1.48;;;;;;;36.11;19.86;99929.06;5073623;28;20044;-61
2022/08/22 12:31:32;;;;;;;1.83;1.20;;;;;;;36.54;18.65;99927.53;5091496;28;20081;-61
2022/08/22 12:34:11;;;;;;;1.38;1.27;;;;;;;36.92;18.29;99926.97;5091706;28;20074;-61
2022/08/22 12:36:54;;;;;;;2.08;1.20;;;;;;;37.32;18.75;99925.97;5091550;28;20040;-62
2022/08/22 12:39:29;;;;;;;2.15;1.30;;;;;;;36.62;19.79;99923.78;5091253;28;20036;-62
2022/08/22 12:42:09;;;;;;;2.63;1.40;;;;;;;37.26;17.96;99921.03;5091463;28;20086;-62
2022/08/22 12:44:56;;;;;;;1.92;1.40;;;;;;;36.97;19.03;99922.31;5095699;28;20472;-61
2022/08/22 12:47:42;;;;;;;1.70;1.13;;;;;;;37.22;17.87;99912.63;5095692;28;20036;-61
2022/08/22 12:50:44;;;;;;;2.08;1.30;;;;;;;37.89;18.51;99912.59;5095197;28;20032;-61
2022/08/22 12:53:23;;;;;;;1.85;1.35;;;;;;;37.34;18.25;99908.97;5095581;28;20032;-62
2022/08/22 12:56:24;;;;;;;2.03;1.25;;;;;;;36.68;19.52;99902.94;5095365;28;20416;-61
2022/08/22 12:59:15;;;;;;;2.40;1.10;;;;;;;36.03;20.11;99902.31;5094936;28;20081;-58
2022/08/22 13:01:44;;;;;;;2.55;1.52;;;;;;;36.58;19.38;99897.94;5091315;28;20121;-61
2022/08/22 13:04:15;;;;;;;2.00;1.33;;;;;;;36.64;18.92;99890.13;5095292;28;20024;-61
2022/08/22 13:06:43;;;;;;;1.63;1.30;;;;;;;36.14;20.04;99894.31;5095274;28;20146;-62
2022/08/22 13:09:23;;;;;;;1.58;1.10;;;;;;;36.45;19.32;99898.34;5094896;28;20046;-61
2022/08/22 13:11:53;;;;;;;1.23;1.10;;;;;;;35.27;20.39;99894.81;5095212;28;20031;-59
2022/08/22 13:14:22;;;;;;;1.52;1.00;;;;;;;36.00;19.10;99899.47;5095158;28;20028;-60
2022/08/22 13:16:53;;;;;;;1.75;1.30;;;;;;;36.49;18.26;99882.59;5095034;28;20513;-61
2022/08/22 13:19:25;;;;;;;1.38;1.10;;;;;;;36.69;18.50;99893.44;5094682;28;20071;-62
2022/08/22 13:21:58;;;;;;;2.60;1.25;;;;;;;36.83;18.57;99897.75;5092950;28;20035;-63
2022/08/22 13:24:48;;;;;;;1.60;1.20;;;;;;;35.85;18.54;99892.66;5094207;28;20039;-61
2022/08/22 13:27:21;;;;;;;1.92;1.38;;;;;;;36.11;19.75;99886.69;5094789;28;20448;-60
2022/08/22 13:29:56;;;;;;;1.45;1.20;;;;;;;36.54;19.90;99885.13;5094305;28;20423;-59
2022/08/22 13:32:45;;;;;;;1.83;1.20;;;;;;;36.32;18.67;99878.16;5094739;28;20028;-61
2022/08/22 13:35:20;;;;;;;1.67;1.13;;;;;;;36.64;19.33;99879.03;5094685;28;20031;-63
2022/08/22 13:37:51;;;;;;;1.50;1.20;;;;;;;37.02;18.95;99883.19;5094557;28;20073;-61
2022/08/22 13:40:29;;;;;;;1.48;1.33;;;;;;;37.11;18.04;99881.03;5094278;28;20480;-61
2022/08/22 13:43:04;;;;;;;1.67;1.20;;;;;;;36.34;18.27;99879.44;5094411;28;20115;-59
2022/08/22 13:45:33;;;;;;;1.70;1.20;;;;;;;35.55;19.28;99886.63;5094515;28;20036;-61
2022/08/22 13:48:08;;;;;;;1.17;1.02;;;;;;;35.55;18.96;99873.59;5094205;28;20035;-60
2022/08/22 13:50:55;;;;;;;2.13;1.30;;;;;;;35.25;19.57;99874.97;5093986;28;20040;-60
2022/08/22 13:53:37;;;;;;;2.58;1.30;;;;;;;34.79;20.50;99875.06;5094229;28;20370;-59
2022/08/22 13:56:10;;;;;;;1.80;1.38;;;;;;;34.52;20.75;99876.53;5094352;28;20040;-59
2022/08/22 13:58:45;;;;;;;3.08;1.38;;;;;;;33.66;21.04;99875.31;5094094;28;20040;-60
2022/08/22 14:01:29;;;;;;;3.10;1.77;;;;;;;33.56;21.55;99881.22;5093756;28;20063;-57
2022/08/22 14:04:24;;;;;;;2.42;1.40;;;;;;;33.01;21.65;99873.91;5093970;28;20115;-59
2022/08/22 14:07:11;;;;;;;1.40;1.25;;;;;;;33.21;22.40;99875.91;5086089;28;20539;-60
2022/08/22 14:10:05;;;;;;;2.30;1.52;;;;;;;33.14;21.96;99875.63;5085735;28;20020;-58
2022/08/22 14:12:35;;;;;;;5.53;1.90;;;;;;;32.62;22.58;99870.31;5083565;28;20055;-60
2022/08/22 14:15:06;;;;;;;1.77;1.30;;;;;;;32.89;22.93;99857.25;5081807;28;20034;-61
2022/08/22 14:17:57;;;;;;;3.08;1.42;;;;;;;32.82;23.01;99857.75;5082735;28;20041;-58
2022/08/22 14:20:27;;;;;;;1.92;1.23;;;;;;;32.78;22.52;99858.72;5083062;28;20031;-61
2022/08/22 14:23:01;;;;;;;1.98;1.50;;;;;;;31.90;24.42;99850.97;5080057;28;20052;-61
2022/08/22 14:25:34;;;;;;;2.08;1.35;;;;;;;31.84;23.31;99856.63;5085745;28;20044;-62
2022/08/22 14:28:03;;;;;;;1.60;1.30;;;;;;;31.32;22.98;99845.56;5083225;28;20504;-60
2022/08/22 14:31:01;;;;;;;2.25;1.48;;;;;;;31.23;24.43;99849.38;5081939;28;20043;-61
2022/08/22 14:33:31;;;;;;;3.10;1.90;;;;;;;31.23;24.17;99850.22;5075273;28;20059;-61
2022/08/22 14:36:02;;;;;;;2.88;1.95;;;;;;;30.98;24.40;99854.50;5081751;28;20043;-61
2022/08/22 14:38:36;;;;;;;3.42;2.58;;;;;;;30.91;24.97;99845.06;5064118;28;20032;-61
2022/08/22 14:41:23;;;;;;;3.08;1.60;;;;;;;30.95;24.80;99849.63;5081436;28;20037;-61
2022/08/22 14:44:04;;;;;;;1.25;1.13;;;;;;;30.65;25.27;99833.97;5073133;28;20478;-59
2022/08/22 14:46:45;;;;;;;2.67;1.58;;;;;;;30.51;26.21;99842.28;5073287;28;20439;-60
2022/08/22 14:49:34;;;;;;;3.00;1.65;;;;;;;30.61;26.54;99835.72;5072931;28;20046;-66
2022/08/22 14:52:11;;;;;;;2.20;1.23;;;;;;;30.50;25.20;99835.97;5072864;28;20086;-64
2022/08/22 14:54:37;;;;;;;2.50;1.80;;;;;;;30.51;25.74;99832.09;5072832;28;20501;-65
2022/08/22 14:57:10;;;;;;;2.65;1.70;;;;;;;30.47;24.72;99825.63;5072787;28;20028;-65
2022/08/22 14:59:36;;;;;;;2.42;1.50;;;;;;;30.35;24.74;99836.41;5072438;28;20033;-65
2022/08/22 15:02:05;;;;;;;2.38;1.33;;;;;;;30.45;25.43;99840.78;5072602;28;20379;-65
2022/08/22 15:04:40;;;;;;;2.88;1.50;;;;;;;30.43;24.91;99832.88;5072474;28;20028;-69
2022/08/22 15:07:08;;;;;;;2.30;1.77;;;;;;;30.38;24.66;99833.00;5072078;28;20039;-64
2022/08/22 15:09:55;;;;;;;2.20;1.45;;;;;;;30.17;24.98;99835.47;5072197;28;20051;-64
2022/08/22 15:12:52;;;;;;;2.10;1.55;;;;;;;30.19;24.86;99825.00;5072518;28;20025;-65
2022/08/22 15:15:43;;;;;;;2.55;1.38;;;;;;;30.24;25.10;99824.84;5072391;28;20119;-64
2022/08/22 15:18:16;;;;;;;1.30;1.20;;;;;;;30.26;24.77;99821.81;5072309;28;20037;-64
2022/08/22 15:20:43;;;;;;;2.15;1.50;;;;;;;30.27;24.77;99821.50;5072032;28;20123;-65
2022/08/22 15:23:35;;;;;;;1.52;1.30;;;;;;;30.22;24.61;99812.56;5072336;28;20036;-64
2022/08/22 15:26:08;;;;;;;2.25;1.60;;;;;;;30.13;24.71;99811.72;5068680;28;20074;-64
2022/08/22 15:28:36;;;;;;;2.13;1.40;;;;;;;30.14;25.67;99822.38;5072010;28;20036;-65
2022/08/22 15:31:04;;;;;;;1.75;1.20;;;;;;;29.98;25.24;99821.91;5071840;28;20082;-66
2022/08/22 15:33:37;;;;;;;2.78;1.63;;;;;;;30.07;24.91;99823.91;5072208;28;20111;-64
2022/08/22 15:36:24;;;;;;;2.33;1.30;;;;;;;30.02;25.30;99824.03;5072005;28;20517;-65
2022/08/22 15:39:30;;;;;;;2.20;1.60;;;;;;;30.02;26.00;99821.28;5071917;28;20036;-64
2022/08/22 15:41:58;;;;;;;1.88;1.42;;;;;;;30.08;26.95;99822.78;5071900;28;20031;-65
2022/08/22 15:44:32;;;;;;;2.33;1.40;;;;;;;29.98;26.20;99821.91;5071924;28;20021;-65
2022/08/22 15:47:00;;;;;;;3.17;2.13;;;;;;;30.03;26.23;99822.91;5071898;28;20049;-65
2022/08/22 15:49:29;;;;;;;3.20;2.00;;;;;;;30.05;25.62;99815.16;5071498;28;20119;-64
2022/08/22 15:51:57;;;;;;;2.72;2.13;;;;;;;29.95;26.20;99811.56;5071792;28;20052;-64
2022/08/22 15:54:41;;;;;;;2.50;1.90;;;;;;;29.90;26.12;99813.63;5071772;28;20126;-64
2022/08/22 15:57:39;;;;;;;3.15;1.73;;;;;;;29.88;25.46;99802.16;5071868;28;20036;-65
2022/08/22 16:00:26;;;;;;;2.05;1.58;;;;;;;29.83;26.22;99805.81;5071303;28;20468;-66
2022/08/22 16:02:55;;;;;;;1.55;1.25;;;;;;;29.80;26.46;99798.22;5071543;28;20387;-66
2022/08/22 16:05:26;;;;;;;2.28;1.50;;;;;;;29.70;25.86;99796.53;5071673;28;20119;-66
2022/08/22 16:08:08;;;;;;;2.90;1.50;;;;;;;29.71;25.68;99800.06;5071688;28;20037;-61
2022/08/22 16:10:40;;;;;;;1.65;1.40;;;;;;;29.71;25.79;99800.88;5071389;28;20043;-65
2022/08/22 16:13:13;;;;;;;1.63;1.27;;;;;;;29.66;25.79;99809.22;5071717;28;20028;-66
2022/08/22 16:15:47;;;;;;;1.45;1.20;;;;;;;29.68;25.86;99803.47;5089267;28;20085;-67
2022/08/22 16:18:45;;;;;;;1.95;1.55;;;;;;;29.67;25.79;99804.59;5091561;28;20054;-65
2022/08/22 16:21:22;;;;;;;1.30;1.20;;;;;;;29.55;25.59;99799.63;5046444;28;20119;-66
2022/08/22 16:23:47;;;;;;;3.03;1.33;;;;;;;29.53;25.82;99803.78;5091500;28;20035;-65
2022/08/22 16:26:35;;;;;;;2.45;1.42;;;;;;;29.53;25.72;99803.78;5091553;28;20385;-65
2022/08/22 16:29:09;;;;;;;2.80;1.48;;;;;;;29.41;25.44;99802.41;5090990;28;20382;-66
2022/08/22 16:31:47;;;;;;;1.63;1.17;;;;;;;29.41;25.51;99801.59;5091585;28;20081;-66
2022/08/22 16:34:15;;;;;;;2.17;1.50;;;;;;;29.37;25.16;99804.13;5091239;28;20060;-66
2022/08/22 16:37:02;;;;;;;2.25;1.48;;;;;;;29.38;26.15;99803.00;5091377;28;20071;-65
2022/08/22 16:39:34;;;;;;;3.13;1.52;;;;;;;29.38;25.82;99803.00;5090491;28;20032;-65
2022/08/22 16:42:20;;;;;;;4.47;2.03;;;;;;;29.36;27.04;99804.44;5073113;28;20042;-65
2022/08/22 16:45:01;;;;;;;1.80;1.20;;;;;;;29.16;25.78;99802.94;5091425;28;20036;-66
2022/08/22 16:47:29;;;;;;;2.85;1.60;;;;;;;29.17;26.16;99797.16;5091392;28;20042;-65